sensor_id;sensor_type;location;lat;lon;timestamp;pressure;altitude;pressure_sealevel;temperature
69007;BMP180;56061;51.748;19.620;2024-01-25T10:26:36;98440.00;;;5.50
69007;BMP180;56061;51.748;19.620;2024-01-25T10:29:36;98439.20;;;5.40
69007;BMP180;56061;51.748;19.620;2024-01-25T10:34:32;98455.00;;;5.40
69007;BMP180;56061;51.748;19.620;2024-01-25T10:37:28;98454.00;;;5.40
69007;BMP180;56061;51.748;19.620;2024-01-25T10:39:55;98453.40;;;5.40
69007;BMP180;56061;51.748;19.620;2024-01-25T10:42:22;98454.00;;;5.40
69007;BMP180;56061;51.748;19.620;2024-01-25T10:47:31;98470.00;;;5.30
69007;BMP180;56061;51.748;19.620;2024-01-25T10:50:03;98475.00;;;5.30
69007;BMP180;56061;51.748;19.620;2024-01-25T10:52:32;98470.80;;;5.30
69007;BMP180;56061;51.748;19.620;2024-01-25T10:58:01;98481.80;;;5.30
69007;BMP180;56061;51.748;19.620;2024-01-25T11:00:31;98485.80;;;5.20
69007;BMP180;56061;51.748;19.620;2024-01-25T11:03:27;98485.20;;;5.20
69007;BMP180;56061;51.748;19.620;2024-01-25T11:08:41;98489.60;;;5.20
69007;BMP180;56061;51.748;19.620;2024-01-25T11:11:12;98491.80;;;5.20
69007;BMP180;56061;51.748;19.620;2024-01-25T11:13:41;98502.40;;;5.20
69007;BMP180;56061;51.748;19.620;2024-01-25T11:16:35;98506.80;;;5.20
69007;BMP180;56061;51.748;19.620;2024-01-25T11:21:42;98515.00;;;5.10
69007;BMP180;56061;51.748;19.620;2024-01-25T11:24:29;98514.80;;;5.20
69007;BMP180;56061;51.748;19.620;2024-01-25T11:26:56;98505.00;;;5.12
69007;BMP180;56061;51.748;19.620;2024-01-25T11:29:23;98506.20;;;5.20
69007;BMP180;56061;51.748;19.620;2024-01-25T11:31:52;98515.80;;;5.20
69007;BMP180;56061;51.748;19.620;2024-01-25T11:34:19;98510.80;;;5.20
69007;BMP180;56061;51.748;19.620;2024-01-25T11:36:53;98510.80;;;5.20
69007;BMP180;56061;51.748;19.620;2024-01-25T11:39:20;98513.80;;;5.20
69007;BMP180;56061;51.748;19.620;2024-01-25T11:41:47;98503.20;;;5.10
69007;BMP180;56061;51.748;19.620;2024-01-25T11:44:15;98520.80;;;5.10
69007;BMP180;56061;51.748;19.620;2024-01-25T11:46:42;98515.00;;;5.10
69007;BMP180;56061;51.748;19.620;2024-01-25T11:49:15;98526.80;;;5.10
69007;BMP180;56061;51.748;19.620;2024-01-25T11:51:42;98525.80;;;5.10
69007;BMP180;56061;51.748;19.620;2024-01-25T11:54:09;98525.00;;;5.10
69007;BMP180;56061;51.748;19.620;2024-01-25T11:56:39;98550.80;;;5.04
69007;BMP180;56061;51.748;19.620;2024-01-25T11:59:25;98528.00;;;5.00
69007;BMP180;56061;51.748;19.620;2024-01-25T12:01:51;98539.80;;;5.00
69007;BMP180;56061;51.748;19.620;2024-01-25T12:04:18;98547.00;;;5.00
69007;BMP180;56061;51.748;19.620;2024-01-25T12:06:47;98546.60;;;5.00
69007;BMP180;56061;51.748;19.620;2024-01-25T12:09:16;98559.80;;;5.00
69007;BMP180;56061;51.748;19.620;2024-01-25T12:11:51;98564.00;;;4.98
69007;BMP180;56061;51.748;19.620;2024-01-25T12:14:18;98575.00;;;4.98
69007;BMP180;56061;51.748;19.620;2024-01-25T12:16:44;98576.00;;;4.92
69007;BMP180;56061;51.748;19.620;2024-01-25T12:19:11;98575.00;;;4.90
69007;BMP180;56061;51.748;19.620;2024-01-25T12:21:56;98577.80;;;4.90
69007;BMP180;56061;51.748;19.620;2024-01-25T12:24:23;98580.40;;;4.90
69007;BMP180;56061;51.748;19.620;2024-01-25T12:26:50;98588.00;;;4.88
69007;BMP180;56061;51.748;19.620;2024-01-25T12:29:16;98590.60;;;4.80
69007;BMP180;56061;51.748;19.620;2024-01-25T12:31:44;98600.20;;;4.80
69007;BMP180;56061;51.748;19.620;2024-01-25T12:34:37;98595.60;;;4.80
69007;BMP180;56061;51.748;19.620;2024-01-25T12:37:06;98598.40;;;4.80
69007;BMP180;56061;51.748;19.620;2024-01-25T12:39:33;98610.60;;;4.80
69007;BMP180;56061;51.748;19.620;2024-01-25T12:44:35;98606.80;;;4.70
69007;BMP180;56061;51.748;19.620;2024-01-25T12:47:03;98599.20;;;4.70
69007;BMP180;56061;51.748;19.620;2024-01-25T12:49:28;98595.20;;;4.70
69007;BMP180;56061;51.748;19.620;2024-01-25T12:51:55;98611.00;;;4.70
69007;BMP180;56061;51.748;19.620;2024-01-25T12:54:36;98608.60;;;4.70
69007;BMP180;56061;51.748;19.620;2024-01-25T12:57:05;98611.60;;;4.70
69007;BMP180;56061;51.748;19.620;2024-01-25T12:59:34;98611.00;;;4.70
69007;BMP180;56061;51.748;19.620;2024-01-25T13:02:03;98615.20;;;4.70
69007;BMP180;56061;51.748;19.620;2024-01-25T13:04:29;98617.60;;;4.70
69007;BMP180;56061;51.748;19.620;2024-01-25T13:07:09;98613.60;;;4.70
69007;BMP180;56061;51.748;19.620;2024-01-25T13:09:35;98630.80;;;4.70
69007;BMP180;56061;51.748;19.620;2024-01-25T13:12:04;98614.80;;;4.70
69007;BMP180;56061;51.748;19.620;2024-01-25T13:14:30;98622.60;;;4.70
69007;BMP180;56061;51.748;19.620;2024-01-25T13:19:57;98622.20;;;4.70
69007;BMP180;56061;51.748;19.620;2024-01-25T13:22:24;98623.60;;;4.70
69007;BMP180;56061;51.748;19.620;2024-01-25T13:25:01;98625.40;;;4.70
69007;BMP180;56061;51.748;19.620;2024-01-25T13:27:29;98626.60;;;4.60
69007;BMP180;56061;51.748;19.620;2024-01-25T13:29:55;98632.80;;;4.60
69007;BMP180;56061;51.748;19.620;2024-01-25T13:32:23;98636.80;;;4.60
69007;BMP180;56061;51.748;19.620;2024-01-25T13:34:50;98642.20;;;4.60
69007;BMP180;56061;51.748;19.620;2024-01-25T13:37:42;98646.20;;;4.60
69007;BMP180;56061;51.748;19.620;2024-01-25T13:40:09;98648.80;;;4.60
69007;BMP180;56061;51.748;19.620;2024-01-25T13:42:36;98654.00;;;4.60
69007;BMP180;56061;51.748;19.620;2024-01-25T13:48:02;98662.40;;;4.60
69007;BMP180;56061;51.748;19.620;2024-01-25T13:50:28;98664.60;;;4.60
69007;BMP180;56061;51.748;19.620;2024-01-25T13:52:55;98666.40;;;4.60
69007;BMP180;56061;51.748;19.620;2024-01-25T13:55:29;98672.80;;;4.52
69007;BMP180;56061;51.748;19.620;2024-01-25T13:57:55;98676.80;;;4.50
69007;BMP180;56061;51.748;19.620;2024-01-25T14:00:22;98680.20;;;4.50
69007;BMP180;56061;51.748;19.620;2024-01-25T14:02:49;98682.40;;;4.50
69007;BMP180;56061;51.748;19.620;2024-01-25T14:05:16;98689.20;;;4.50
69007;BMP180;56061;51.748;19.620;2024-01-25T14:08:05;98687.40;;;4.48
69007;BMP180;56061;51.748;19.620;2024-01-25T14:10:32;98690.80;;;4.50
69007;BMP180;56061;51.748;19.620;2024-01-25T14:13:01;98697.20;;;4.44
69007;BMP180;56061;51.748;19.620;2024-01-25T14:15:46;98700.40;;;4.40
69007;BMP180;56061;51.748;19.620;2024-01-25T14:18:13;98696.40;;;4.40
69007;BMP180;56061;51.748;19.620;2024-01-25T14:20:41;98701.20;;;4.40
69007;BMP180;56061;51.748;19.620;2024-01-25T14:23:08;98705.40;;;4.40
69007;BMP180;56061;51.748;19.620;2024-01-25T14:25:35;98704.60;;;4.38
69007;BMP180;56061;51.748;19.620;2024-01-25T14:28:15;98708.20;;;4.30
69007;BMP180;56061;51.748;19.620;2024-01-25T14:30:42;98714.60;;;4.36
69007;BMP180;56061;51.748;19.620;2024-01-25T14:33:13;98719.20;;;4.30
69007;BMP180;56061;51.748;19.620;2024-01-25T14:35:40;98730.40;;;4.32
69007;BMP180;56061;51.748;19.620;2024-01-25T14:38:07;98728.40;;;4.30
69007;BMP180;56061;51.748;19.620;2024-01-25T14:40:34;98740.80;;;4.30
69007;BMP180;56061;51.748;19.620;2024-01-25T14:43:20;98730.20;;;4.30
69007;BMP180;56061;51.748;19.620;2024-01-25T14:45:47;98738.80;;;4.30
69007;BMP180;56061;51.748;19.620;2024-01-25T14:48:14;98745.40;;;4.30
69007;BMP180;56061;51.748;19.620;2024-01-25T14:50:41;98745.00;;;4.30
69007;BMP180;56061;51.748;19.620;2024-01-25T14:53:08;98759.20;;;4.30
69007;BMP180;56061;51.748;19.620;2024-01-25T14:55:34;98759.00;;;4.30
69007;BMP180;56061;51.748;19.620;2024-01-25T14:58:01;98767.40;;;4.30
69007;BMP180;56061;51.748;19.620;2024-01-25T15:00:28;98776.40;;;4.30
69007;BMP180;56061;51.748;19.620;2024-01-25T15:02:54;98771.60;;;4.22
69007;BMP180;56061;51.748;19.620;2024-01-25T15:05:23;98774.00;;;4.20
69007;BMP180;56061;51.748;19.620;2024-01-25T15:07:50;98778.00;;;4.20
69007;BMP180;56061;51.748;19.620;2024-01-25T15:10:16;98785.20;;;4.20
69007;BMP180;56061;51.748;19.620;2024-01-25T15:12:43;98781.60;;;4.20
69007;BMP180;56061;51.748;19.620;2024-01-25T15:15:10;98797.60;;;4.20
69007;BMP180;56061;51.748;19.620;2024-01-25T15:17:36;98796.60;;;4.20
69007;BMP180;56061;51.748;19.620;2024-01-25T15:20:03;98796.00;;;4.20
69007;BMP180;56061;51.748;19.620;2024-01-25T15:22:29;98795.40;;;4.14
69007;BMP180;56061;51.748;19.620;2024-01-25T15:24:57;98808.40;;;4.10
69007;BMP180;56061;51.748;19.620;2024-01-25T15:27:24;98820.60;;;4.10
69007;BMP180;56061;51.748;19.620;2024-01-25T15:29:51;98812.80;;;4.10
69007;BMP180;56061;51.748;19.620;2024-01-25T15:32:17;98819.60;;;4.10
69007;BMP180;56061;51.748;19.620;2024-01-25T15:34:44;98813.80;;;4.10
69007;BMP180;56061;51.748;19.620;2024-01-25T15:37:11;98828.60;;;4.10
69007;BMP180;56061;51.748;19.620;2024-01-25T15:39:37;98824.20;;;4.06
69007;BMP180;56061;51.748;19.620;2024-01-25T15:44:31;98827.40;;;4.00
69007;BMP180;56061;51.748;19.620;2024-01-25T15:46:58;98839.60;;;4.00
69007;BMP180;56061;51.748;19.620;2024-01-25T15:49:24;98843.60;;;4.00
69007;BMP180;56061;51.748;19.620;2024-01-25T15:51:51;98836.40;;;4.00
69007;BMP180;56061;51.748;19.620;2024-01-25T15:54:18;98841.40;;;4.00
69007;BMP180;56061;51.748;19.620;2024-01-25T15:56:45;98845.00;;;4.00
69007;BMP180;56061;51.748;19.620;2024-01-25T15:59:11;98849.20;;;4.00
69007;BMP180;56061;51.748;19.620;2024-01-25T16:01:38;98855.00;;;4.00
69007;BMP180;56061;51.748;19.620;2024-01-25T16:04:04;98857.60;;;4.00
69007;BMP180;56061;51.748;19.620;2024-01-25T16:06:31;98868.00;;;3.92
69007;BMP180;56061;51.748;19.620;2024-01-25T16:09:02;98867.80;;;3.90
69007;BMP180;56061;51.748;19.620;2024-01-25T16:11:28;98881.40;;;3.90
69007;BMP180;56061;51.748;19.620;2024-01-25T16:13:55;98876.80;;;3.90
69007;BMP180;56061;51.748;19.620;2024-01-25T16:16:22;98880.20;;;3.90
69007;BMP180;56061;51.748;19.620;2024-01-25T16:18:48;98886.40;;;3.90
69007;BMP180;56061;51.748;19.620;2024-01-25T16:21:15;98890.00;;;3.92
69007;BMP180;56061;51.748;19.620;2024-01-25T16:23:42;98895.00;;;3.90
69007;BMP180;56061;51.748;19.620;2024-01-25T16:26:08;98902.40;;;3.90
69007;BMP180;56061;51.748;19.620;2024-01-25T16:28:35;98898.00;;;3.90
69007;BMP180;56061;51.748;19.620;2024-01-25T16:31:02;98907.80;;;3.90
69007;BMP180;56061;51.748;19.620;2024-01-25T16:33:29;98916.80;;;3.90
69007;BMP180;56061;51.748;19.620;2024-01-25T16:35:56;98909.80;;;3.90
69007;BMP180;56061;51.748;19.620;2024-01-25T16:38:24;98911.00;;;3.90
69007;BMP180;56061;51.748;19.620;2024-01-25T16:40:51;98927.60;;;3.90
69007;BMP180;56061;51.748;19.620;2024-01-25T16:43:17;98924.00;;;3.90
69007;BMP180;56061;51.748;19.620;2024-01-25T16:45:44;98929.20;;;3.90
69007;BMP180;56061;51.748;19.620;2024-01-25T16:48:10;98922.00;;;3.88
69007;BMP180;56061;51.748;19.620;2024-01-25T16:50:39;98940.20;;;3.84
69007;BMP180;56061;51.748;19.620;2024-01-25T16:53:06;98957.60;;;3.80
69007;BMP180;56061;51.748;19.620;2024-01-25T16:55:32;98970.20;;;3.80
69007;BMP180;56061;51.748;19.620;2024-01-25T16:57:59;98973.20;;;3.54
69007;BMP180;56061;51.748;19.620;2024-01-25T17:00:27;98985.80;;;2.96
69007;BMP180;56061;51.748;19.620;2024-01-25T17:02:56;98978.60;;;2.50
69007;BMP180;56061;51.748;19.620;2024-01-25T17:05:22;98977.80;;;2.22
69007;BMP180;56061;51.748;19.620;2024-01-25T17:07:49;98984.40;;;2.10
69007;BMP180;56061;51.748;19.620;2024-01-25T17:10:15;98979.20;;;2.00
69007;BMP180;56061;51.748;19.620;2024-01-25T17:12:44;98984.60;;;1.98
69007;BMP180;56061;51.748;19.620;2024-01-25T17:15:10;98985.40;;;1.98
69007;BMP180;56061;51.748;19.620;2024-01-25T17:17:39;98990.00;;;2.00
69007;BMP180;56061;51.748;19.620;2024-01-25T17:20:06;98991.40;;;2.00
69007;BMP180;56061;51.748;19.620;2024-01-25T17:22:33;98990.00;;;2.00
69007;BMP180;56061;51.748;19.620;2024-01-25T17:25:00;99000.60;;;2.00
69007;BMP180;56061;51.748;19.620;2024-01-25T17:27:26;99002.00;;;2.00
69007;BMP180;56061;51.748;19.620;2024-01-25T17:29:53;98999.80;;;2.00
69007;BMP180;56061;51.748;19.620;2024-01-25T17:32:20;99005.00;;;1.90
69007;BMP180;56061;51.748;19.620;2024-01-25T17:34:46;99008.20;;;1.90
69007;BMP180;56061;51.748;19.620;2024-01-25T17:37:13;99013.40;;;1.90
69007;BMP180;56061;51.748;19.620;2024-01-25T17:39:40;99015.40;;;1.88
69007;BMP180;56061;51.748;19.620;2024-01-25T17:42:06;99017.20;;;1.80
69007;BMP180;56061;51.748;19.620;2024-01-25T17:44:33;99020.20;;;1.80
69007;BMP180;56061;51.748;19.620;2024-01-25T17:46:59;99027.00;;;1.80
69007;BMP180;56061;51.748;19.620;2024-01-25T17:49:26;99035.00;;;1.80
69007;BMP180;56061;51.748;19.620;2024-01-25T17:51:53;99040.80;;;1.80
69007;BMP180;56061;51.748;19.620;2024-01-25T17:54:19;99042.20;;;1.90
69007;BMP180;56061;51.748;19.620;2024-01-25T17:56:46;99044.60;;;1.90
69007;BMP180;56061;51.748;19.620;2024-01-25T17:59:13;99052.60;;;1.90
69007;BMP180;56061;51.748;19.620;2024-01-25T18:01:40;99050.20;;;1.90
69007;BMP180;56061;51.748;19.620;2024-01-25T18:04:08;99047.80;;;1.90
69007;BMP180;56061;51.748;19.620;2024-01-25T18:06:35;99052.60;;;1.90
69007;BMP180;56061;51.748;19.620;2024-01-25T18:09:01;99070.60;;;1.90
69007;BMP180;56061;51.748;19.620;2024-01-25T18:11:28;99057.00;;;1.80
69007;BMP180;56061;51.748;19.620;2024-01-25T18:13:54;99067.60;;;1.80
69007;BMP180;56061;51.748;19.620;2024-01-25T18:16:22;99058.00;;;1.80
69007;BMP180;56061;51.748;19.620;2024-01-25T18:18:49;99073.20;;;1.80
69007;BMP180;56061;51.748;19.620;2024-01-25T18:21:16;99064.40;;;1.80
69007;BMP180;56061;51.748;19.620;2024-01-25T18:23:43;99064.20;;;1.78
69007;BMP180;56061;51.748;19.620;2024-01-25T18:26:10;99066.40;;;1.74
69007;BMP180;56061;51.748;19.620;2024-01-25T18:28:37;99069.20;;;1.78
69007;BMP180;56061;51.748;19.620;2024-01-25T18:31:03;99072.80;;;1.78
69007;BMP180;56061;51.748;19.620;2024-01-25T18:33:30;99078.20;;;1.80
69007;BMP180;56061;51.748;19.620;2024-01-25T18:35:56;99086.20;;;1.80
69007;BMP180;56061;51.748;19.620;2024-01-25T18:38:23;99090.40;;;1.80
69007;BMP180;56061;51.748;19.620;2024-01-25T18:40:49;99103.00;;;1.84
69007;BMP180;56061;51.748;19.620;2024-01-25T18:43:16;99096.40;;;1.84
69007;BMP180;56061;51.748;19.620;2024-01-25T18:45:45;99102.00;;;1.86
69007;BMP180;56061;51.748;19.620;2024-01-25T18:48:13;99103.00;;;1.90
69007;BMP180;56061;51.748;19.620;2024-01-25T18:50:40;99108.60;;;1.90
69007;BMP180;56061;51.748;19.620;2024-01-25T18:53:06;99104.40;;;1.90
69007;BMP180;56061;51.748;19.620;2024-01-25T18:55:33;99105.40;;;1.82
69007;BMP180;56061;51.748;19.620;2024-01-25T18:58:02;99113.60;;;1.80
69007;BMP180;56061;51.748;19.620;2024-01-25T19:00:29;99125.00;;;1.90
69007;BMP180;56061;51.748;19.620;2024-01-25T19:02:56;99128.80;;;1.90
69007;BMP180;56061;51.748;19.620;2024-01-25T19:05:23;99124.00;;;1.90
69007;BMP180;56061;51.748;19.620;2024-01-25T19:07:50;99129.00;;;1.90
69007;BMP180;56061;51.748;19.620;2024-01-25T19:10:18;99136.40;;;1.90
69007;BMP180;56061;51.748;19.620;2024-01-25T19:12:45;99137.60;;;1.82
69007;BMP180;56061;51.748;19.620;2024-01-25T19:15:11;99145.00;;;1.80
69007;BMP180;56061;51.748;19.620;2024-01-25T19:17:40;99145.40;;;1.80
69007;BMP180;56061;51.748;19.620;2024-01-25T19:20:07;99147.40;;;1.72
69007;BMP180;56061;51.748;19.620;2024-01-25T19:22:34;99156.80;;;1.70
69007;BMP180;56061;51.748;19.620;2024-01-25T19:25:00;99148.20;;;1.70
69007;BMP180;56061;51.748;19.620;2024-01-25T19:27:27;99168.20;;;1.70
69007;BMP180;56061;51.748;19.620;2024-01-25T19:29:56;99157.60;;;1.60
69007;BMP180;56061;51.748;19.620;2024-01-25T19:32:23;99155.40;;;1.60
69007;BMP180;56061;51.748;19.620;2024-01-25T19:34:50;99160.00;;;1.50
69007;BMP180;56061;51.748;19.620;2024-01-25T19:37:16;99174.20;;;1.42
69007;BMP180;56061;51.748;19.620;2024-01-25T19:39:43;99170.00;;;1.40
69007;BMP180;56061;51.748;19.620;2024-01-25T19:42:10;99172.40;;;1.30
69007;BMP180;56061;51.748;19.620;2024-01-25T19:44:37;99178.60;;;1.30
69007;BMP180;56061;51.748;19.620;2024-01-25T19:47:04;99180.20;;;1.30
69007;BMP180;56061;51.748;19.620;2024-01-25T19:49:30;99180.80;;;1.30
69007;BMP180;56061;51.748;19.620;2024-01-25T19:51:56;99185.40;;;1.30
69007;BMP180;56061;51.748;19.620;2024-01-25T19:54:23;99175.20;;;1.34
69007;BMP180;56061;51.748;19.620;2024-01-25T19:56:50;99181.20;;;1.32
69007;BMP180;56061;51.748;19.620;2024-01-25T19:59:17;99186.20;;;1.40
69007;BMP180;56061;51.748;19.620;2024-01-25T20:01:45;99184.80;;;1.40
69007;BMP180;56061;51.748;19.620;2024-01-25T20:05:15;99190.40;;;1.40
69007;BMP180;56061;51.748;19.620;2024-01-25T20:07:42;99184.40;;;1.40
69007;BMP180;56061;51.748;19.620;2024-01-25T20:10:08;99182.00;;;1.46
69007;BMP180;56061;51.748;19.620;2024-01-25T20:12:35;99185.60;;;1.48
69007;BMP180;56061;51.748;19.620;2024-01-25T20:15:01;99177.60;;;1.46
69007;BMP180;56061;51.748;19.620;2024-01-25T20:17:27;99181.40;;;1.46
69007;BMP180;56061;51.748;19.620;2024-01-25T20:19:53;99190.20;;;1.50
69007;BMP180;56061;51.748;19.620;2024-01-25T20:22:19;99201.60;;;1.50
69007;BMP180;56061;51.748;19.620;2024-01-25T20:24:47;99197.20;;;1.50
69007;BMP180;56061;51.748;19.620;2024-01-25T20:27:13;99198.40;;;1.50
69007;BMP180;56061;51.748;19.620;2024-01-25T20:29:38;99196.20;;;1.50
69007;BMP180;56061;51.748;19.620;2024-01-25T20:32:05;99196.80;;;1.50
69007;BMP180;56061;51.748;19.620;2024-01-25T20:34:31;99196.20;;;1.50
69007;BMP180;56061;51.748;19.620;2024-01-25T20:36:59;99198.00;;;1.58
69007;BMP180;56061;51.748;19.620;2024-01-25T20:39:25;99203.20;;;1.60
69007;BMP180;56061;51.748;19.620;2024-01-25T20:41:52;99213.80;;;1.60
69007;BMP180;56061;51.748;19.620;2024-01-25T20:44:18;99217.20;;;1.60
69007;BMP180;56061;51.748;19.620;2024-01-25T20:46:45;99218.80;;;1.60
69007;BMP180;56061;51.748;19.620;2024-01-25T20:49:11;99217.80;;;1.60
69007;BMP180;56061;51.748;19.620;2024-01-25T20:51:37;99224.80;;;1.60
69007;BMP180;56061;51.748;19.620;2024-01-25T20:54:03;99224.00;;;1.60
69007;BMP180;56061;51.748;19.620;2024-01-25T20:56:30;99224.20;;;1.60
69007;BMP180;56061;51.748;19.620;2024-01-25T20:58:56;99219.20;;;1.60
69007;BMP180;56061;51.748;19.620;2024-01-25T21:01:23;99227.80;;;1.60
